sensor_id;sensor_type;location;lat;lon;timestamp;P1;durP1;ratioP1;P2;durP2;ratioP2
12591;SDS011;6361;52.120;5.108;2022-12-07T00:01:27;9.82;;;2.95;;
12591;SDS011;6361;52.120;5.108;2022-12-07T00:04:00;4.57;;;2.47;;
12591;SDS011;6361;52.120;5.108;2022-12-07T00:06:30;8.48;;;2.92;;
12591;SDS011;6361;52.120;5.108;2022-12-07T00:08:57;11.82;;;3.03;;
12591;SDS011;6361;52.120;5.108;2022-12-07T00:11:23;8.90;;;2.63;;
12591;SDS011;6361;52.120;5.108;2022-12-07T00:13:53;7.45;;;2.55;;
12591;SDS011;6361;52.120;5.108;2022-12-07T00:16:21;10.27;;;2.67;;
12591;SDS011;6361;52.120;5.108;2022-12-07T00:18:48;8.82;;;2.72;;
12591;SDS011;6361;52.120;5.108;2022-12-07T00:21:24;7.13;;;2.40;;
12591;SDS011;6361;52.120;5.108;2022-12-07T00:23:52;8.18;;;2.80;;
12591;SDS011;6361;52.120;5.108;2022-12-07T00:26:23;5.40;;;2.17;;
12591;SDS011;6361;52.120;5.108;2022-12-07T00:28:50;9.68;;;2.25;;
12591;SDS011;6361;52.120;5.108;2022-12-07T00:31:18;8.23;;;2.40;;
12591;SDS011;6361;52.120;5.108;2022-12-07T00:33:44;6.78;;;2.63;;
12591;SDS011;6361;52.120;5.108;2022-12-07T00:36:11;6.95;;;2.22;;
12591;SDS011;6361;52.120;5.108;2022-12-07T00:38:38;7.05;;;2.20;;
12591;SDS011;6361;52.120;5.108;2022-12-07T00:41:05;11.88;;;2.88;;
12591;SDS011;6361;52.120;5.108;2022-12-07T00:43:32;9.55;;;2.55;;
12591;SDS011;6361;52.120;5.108;2022-12-07T00:45:58;7.32;;;2.50;;
12591;SDS011;6361;52.120;5.108;2022-12-07T00:48:24;6.80;;;2.25;;
12591;SDS011;6361;52.120;5.108;2022-12-07T00:50:50;6.97;;;2.40;;
12591;SDS011;6361;52.120;5.108;2022-12-07T00:53:16;7.28;;;2.30;;
12591;SDS011;6361;52.120;5.108;2022-12-07T00:55:41;6.28;;;2.05;;
12591;SDS011;6361;52.120;5.108;2022-12-07T00:58:08;9.15;;;2.38;;
12591;SDS011;6361;52.120;5.108;2022-12-07T01:00:37;9.88;;;2.22;;
12591;SDS011;6361;52.120;5.108;2022-12-07T01:03:05;10.48;;;2.20;;
12591;SDS011;6361;52.120;5.108;2022-12-07T01:05:31;6.03;;;2.42;;
12591;SDS011;6361;52.120;5.108;2022-12-07T01:07:57;10.00;;;2.50;;
12591;SDS011;6361;52.120;5.108;2022-12-07T01:10:22;9.30;;;2.47;;
12591;SDS011;6361;52.120;5.108;2022-12-07T01:12:48;8.48;;;2.50;;
12591;SDS011;6361;52.120;5.108;2022-12-07T01:15:13;7.65;;;2.35;;
12591;SDS011;6361;52.120;5.108;2022-12-07T01:17:39;6.15;;;2.47;;
12591;SDS011;6361;52.120;5.108;2022-12-07T01:20:07;6.90;;;2.45;;
12591;SDS011;6361;52.120;5.108;2022-12-07T01:22:36;7.85;;;2.55;;
12591;SDS011;6361;52.120;5.108;2022-12-07T01:25:03;8.45;;;2.65;;
12591;SDS011;6361;52.120;5.108;2022-12-07T01:27:29;8.50;;;2.70;;
12591;SDS011;6361;52.120;5.108;2022-12-07T01:29:54;10.02;;;3.00;;
12591;SDS011;6361;52.120;5.108;2022-12-07T01:32:20;13.02;;;3.33;;
12591;SDS011;6361;52.120;5.108;2022-12-07T01:34:47;10.23;;;2.75;;
12591;SDS011;6361;52.120;5.108;2022-12-07T01:37:13;7.38;;;2.65;;
12591;SDS011;6361;52.120;5.108;2022-12-07T01:39:38;11.80;;;3.20;;
12591;SDS011;6361;52.120;5.108;2022-12-07T01:42:03;7.10;;;2.85;;
12591;SDS011;6361;52.120;5.108;2022-12-07T01:44:29;5.50;;;2.60;;
12591;SDS011;6361;52.120;5.108;2022-12-07T01:47:00;11.02;;;3.00;;
12591;SDS011;6361;52.120;5.108;2022-12-07T01:49:38;9.80;;;2.63;;
12591;SDS011;6361;52.120;5.108;2022-12-07T01:52:24;7.78;;;2.60;;
12591;SDS011;6361;52.120;5.108;2022-12-07T01:54:53;16.75;;;3.30;;
12591;SDS011;6361;52.120;5.108;2022-12-07T01:57:20;7.15;;;2.38;;
12591;SDS011;6361;52.120;5.108;2022-12-07T01:59:47;9.98;;;2.65;;
12591;SDS011;6361;52.120;5.108;2022-12-07T02:02:28;9.18;;;2.60;;
12591;SDS011;6361;52.120;5.108;2022-12-07T02:04:57;9.10;;;2.33;;
12591;SDS011;6361;52.120;5.108;2022-12-07T02:07:24;7.82;;;2.17;;
12591;SDS011;6361;52.120;5.108;2022-12-07T02:09:50;11.00;;;2.10;;
12591;SDS011;6361;52.120;5.108;2022-12-07T02:12:16;16.77;;;2.30;;
12591;SDS011;6361;52.120;5.108;2022-12-07T02:14:41;8.00;;;2.33;;
12591;SDS011;6361;52.120;5.108;2022-12-07T02:17:28;8.25;;;2.25;;
12591;SDS011;6361;52.120;5.108;2022-12-07T02:20:16;8.73;;;2.17;;
12591;SDS011;6361;52.120;5.108;2022-12-07T02:31:06;6.90;;;1.60;;
12591;SDS011;6361;52.120;5.108;2022-12-07T02:33:36;10.55;;;2.00;;
12591;SDS011;6361;52.120;5.108;2022-12-07T02:36:11;9.68;;;2.10;;
12591;SDS011;6361;52.120;5.108;2022-12-07T02:41:31;11.68;;;2.20;;
12591;SDS011;6361;52.120;5.108;2022-12-07T02:44:00;8.27;;;1.80;;
12591;SDS011;6361;52.120;5.108;2022-12-07T02:46:30;8.90;;;1.92;;
12591;SDS011;6361;52.120;5.108;2022-12-07T02:48:58;8.45;;;1.98;;
12591;SDS011;6361;52.120;5.108;2022-12-07T02:51:43;8.97;;;1.50;;
12591;SDS011;6361;52.120;5.108;2022-12-07T02:54:13;6.72;;;1.70;;
12591;SDS011;6361;52.120;5.108;2022-12-07T03:07:39;9.40;;;1.60;;
12591;SDS011;6361;52.120;5.108;2022-12-07T03:15:48;6.45;;;1.40;;
12591;SDS011;6361;52.120;5.108;2022-12-07T03:18:15;5.60;;;1.45;;
12591;SDS011;6361;52.120;5.108;2022-12-07T03:20:42;7.75;;;1.70;;
12591;SDS011;6361;52.120;5.108;2022-12-07T03:23:09;7.15;;;1.67;;
12591;SDS011;6361;52.120;5.108;2022-12-07T03:25:36;5.25;;;1.30;;
12591;SDS011;6361;52.120;5.108;2022-12-07T03:28:08;8.32;;;1.30;;
12591;SDS011;6361;52.120;5.108;2022-12-07T03:30:37;6.65;;;1.45;;
12591;SDS011;6361;52.120;5.108;2022-12-07T03:33:07;8.60;;;1.63;;
12591;SDS011;6361;52.120;5.108;2022-12-07T03:35:52;5.68;;;1.20;;
12591;SDS011;6361;52.120;5.108;2022-12-07T03:38:29;4.63;;;1.17;;
12591;SDS011;6361;52.120;5.108;2022-12-07T03:41:40;7.45;;;1.40;;
12591;SDS011;6361;52.120;5.108;2022-12-07T03:43:51;8.85;;;1.40;;
12591;SDS011;6361;52.120;5.108;2022-12-07T03:49:41;7.03;;;1.50;;
12591;SDS011;6361;52.120;5.108;2022-12-07T03:51:56;5.97;;;1.38;;
12591;SDS011;6361;52.120;5.108;2022-12-07T03:54:32;5.43;;;1.35;;
12591;SDS011;6361;52.120;5.108;2022-12-07T03:57:01;6.32;;;1.48;;
12591;SDS011;6361;52.120;5.108;2022-12-07T03:59:28;7.30;;;1.45;;
12591;SDS011;6361;52.120;5.108;2022-12-07T04:01:55;5.35;;;1.33;;
12591;SDS011;6361;52.120;5.108;2022-12-07T04:04:23;8.75;;;1.40;;
12591;SDS011;6361;52.120;5.108;2022-12-07T04:06:49;8.65;;;1.50;;
12591;SDS011;6361;52.120;5.108;2022-12-07T04:09:15;9.27;;;1.42;;
12591;SDS011;6361;52.120;5.108;2022-12-07T04:11:42;6.28;;;1.42;;
12591;SDS011;6361;52.120;5.108;2022-12-07T04:14:07;12.07;;;1.73;;
12591;SDS011;6361;52.120;5.108;2022-12-07T04:16:52;4.15;;;1.60;;
12591;SDS011;6361;52.120;5.108;2022-12-07T04:19:26;9.02;;;1.80;;
12591;SDS011;6361;52.120;5.108;2022-12-07T04:21:55;7.53;;;1.65;;
12591;SDS011;6361;52.120;5.108;2022-12-07T04:24:21;8.63;;;1.70;;
12591;SDS011;6361;52.120;5.108;2022-12-07T04:26:47;5.65;;;1.33;;
12591;SDS011;6361;52.120;5.108;2022-12-07T04:29:13;7.80;;;1.55;;
12591;SDS011;6361;52.120;5.108;2022-12-07T04:31:39;4.65;;;1.20;;
12591;SDS011;6361;52.120;5.108;2022-12-07T04:34:05;6.18;;;1.60;;
12591;SDS011;6361;52.120;5.108;2022-12-07T04:36:31;10.57;;;1.48;;
12591;SDS011;6361;52.120;5.108;2022-12-07T04:38:57;5.85;;;1.15;;
12591;SDS011;6361;52.120;5.108;2022-12-07T04:41:23;7.55;;;1.55;;
12591;SDS011;6361;52.120;5.108;2022-12-07T04:44:01;7.50;;;1.33;;
12591;SDS011;6361;52.120;5.108;2022-12-07T04:46:29;6.90;;;1.30;;
12591;SDS011;6361;52.120;5.108;2022-12-07T04:48:55;8.50;;;1.33;;
12591;SDS011;6361;52.120;5.108;2022-12-07T04:51:22;6.72;;;1.50;;
12591;SDS011;6361;52.120;5.108;2022-12-07T04:53:49;11.38;;;1.55;;
12591;SDS011;6361;52.120;5.108;2022-12-07T04:56:15;6.45;;;1.30;;
12591;SDS011;6361;52.120;5.108;2022-12-07T04:58:41;11.73;;;1.58;;
12591;SDS011;6361;52.120;5.108;2022-12-07T05:01:07;6.50;;;1.45;;
12591;SDS011;6361;52.120;5.108;2022-12-07T05:03:33;7.70;;;1.60;;
12591;SDS011;6361;52.120;5.108;2022-12-07T05:05:58;11.00;;;1.85;;
12591;SDS011;6361;52.120;5.108;2022-12-07T05:08:23;10.05;;;1.63;;
12591;SDS011;6361;52.120;5.108;2022-12-07T05:10:49;12.60;;;1.60;;
12591;SDS011;6361;52.120;5.108;2022-12-07T05:13:15;6.95;;;1.50;;
12591;SDS011;6361;52.120;5.108;2022-12-07T05:15:40;12.65;;;1.55;;
12591;SDS011;6361;52.120;5.108;2022-12-07T05:18:08;8.73;;;1.30;;
12591;SDS011;6361;52.120;5.108;2022-12-07T05:20:35;8.75;;;1.65;;
12591;SDS011;6361;52.120;5.108;2022-12-07T05:23:00;7.60;;;1.55;;
12591;SDS011;6361;52.120;5.108;2022-12-07T05:25:25;6.85;;;1.40;;
12591;SDS011;6361;52.120;5.108;2022-12-07T05:27:51;5.78;;;1.15;;
12591;SDS011;6361;52.120;5.108;2022-12-07T05:30:16;7.15;;;1.33;;
12591;SDS011;6361;52.120;5.108;2022-12-07T05:32:41;7.70;;;1.25;;
12591;SDS011;6361;52.120;5.108;2022-12-07T05:35:07;8.93;;;1.50;;
12591;SDS011;6361;52.120;5.108;2022-12-07T05:37:33;5.35;;;1.50;;
12591;SDS011;6361;52.120;5.108;2022-12-07T05:39:58;6.07;;;1.80;;
12591;SDS011;6361;52.120;5.108;2022-12-07T05:42:23;6.45;;;1.23;;
12591;SDS011;6361;52.120;5.108;2022-12-07T05:44:49;6.85;;;1.48;;
12591;SDS011;6361;52.120;5.108;2022-12-07T05:47:15;7.13;;;1.42;;
12591;SDS011;6361;52.120;5.108;2022-12-07T05:49:40;11.85;;;1.73;;
12591;SDS011;6361;52.120;5.108;2022-12-07T05:52:06;13.25;;;1.73;;
12591;SDS011;6361;52.120;5.108;2022-12-07T05:54:31;6.35;;;1.42;;
12591;SDS011;6361;52.120;5.108;2022-12-07T05:56:57;5.97;;;1.73;;
12591;SDS011;6361;52.120;5.108;2022-12-07T05:59:23;9.15;;;1.67;;
12591;SDS011;6361;52.120;5.108;2022-12-07T06:01:58;11.50;;;1.77;;
12591;SDS011;6361;52.120;5.108;2022-12-07T06:04:28;9.05;;;1.50;;
12591;SDS011;6361;52.120;5.108;2022-12-07T06:06:54;11.38;;;1.45;;
12591;SDS011;6361;52.120;5.108;2022-12-07T06:09:20;11.45;;;1.65;;
12591;SDS011;6361;52.120;5.108;2022-12-07T06:11:47;6.40;;;1.50;;
12591;SDS011;6361;52.120;5.108;2022-12-07T06:14:31;11.10;;;1.52;;
12591;SDS011;6361;52.120;5.108;2022-12-07T06:16:57;10.52;;;1.83;;
12591;SDS011;6361;52.120;5.108;2022-12-07T06:19:23;8.07;;;1.42;;
12591;SDS011;6361;52.120;5.108;2022-12-07T06:21:48;11.68;;;1.50;;
12591;SDS011;6361;52.120;5.108;2022-12-07T06:24:14;6.70;;;1.30;;
12591;SDS011;6361;52.120;5.108;2022-12-07T06:26:42;8.10;;;1.33;;
12591;SDS011;6361;52.120;5.108;2022-12-07T06:29:07;9.82;;;1.83;;
12591;SDS011;6361;52.120;5.108;2022-12-07T06:31:33;6.65;;;1.15;;
12591;SDS011;6361;52.120;5.108;2022-12-07T06:34:03;11.00;;;1.55;;
12591;SDS011;6361;52.120;5.108;2022-12-07T06:36:29;11.02;;;1.42;;
12591;SDS011;6361;52.120;5.108;2022-12-07T06:38:55;8.73;;;1.35;;
12591;SDS011;6361;52.120;5.108;2022-12-07T06:41:21;13.25;;;2.97;;
12591;SDS011;6361;52.120;5.108;2022-12-07T06:43:46;15.82;;;2.10;;
12591;SDS011;6361;52.120;5.108;2022-12-07T06:46:12;9.73;;;1.58;;
12591;SDS011;6361;52.120;5.108;2022-12-07T06:48:38;6.60;;;1.30;;
12591;SDS011;6361;52.120;5.108;2022-12-07T06:51:03;11.70;;;1.75;;
12591;SDS011;6361;52.120;5.108;2022-12-07T06:53:28;9.85;;;2.08;;
12591;SDS011;6361;52.120;5.108;2022-12-07T06:55:54;6.72;;;1.38;;
12591;SDS011;6361;52.120;5.108;2022-12-07T06:58:19;8.27;;;1.38;;
12591;SDS011;6361;52.120;5.108;2022-12-07T07:00:45;5.85;;;1.40;;
12591;SDS011;6361;52.120;5.108;2022-12-07T07:03:10;7.88;;;1.58;;
12591;SDS011;6361;52.120;5.108;2022-12-07T07:05:36;5.97;;;1.58;;
12591;SDS011;6361;52.120;5.108;2022-12-07T07:08:01;9.07;;;1.55;;
12591;SDS011;6361;52.120;5.108;2022-12-07T07:10:27;12.25;;;1.80;;
12591;SDS011;6361;52.120;5.108;2022-12-07T07:12:53;9.05;;;1.55;;
12591;SDS011;6361;52.120;5.108;2022-12-07T07:15:18;12.07;;;1.70;;
12591;SDS011;6361;52.120;5.108;2022-12-07T07:17:43;7.85;;;1.23;;
12591;SDS011;6361;52.120;5.108;2022-12-07T07:20:09;10.07;;;1.50;;
12591;SDS011;6361;52.120;5.108;2022-12-07T07:22:35;9.90;;;1.50;;
12591;SDS011;6361;52.120;5.108;2022-12-07T07:25:00;7.15;;;1.60;;
12591;SDS011;6361;52.120;5.108;2022-12-07T07:27:25;11.05;;;1.60;;
12591;SDS011;6361;52.120;5.108;2022-12-07T07:29:51;11.43;;;1.92;;
12591;SDS011;6361;52.120;5.108;2022-12-07T07:32:16;8.27;;;1.38;;
12591;SDS011;6361;52.120;5.108;2022-12-07T07:34:42;9.27;;;1.67;;
12591;SDS011;6361;52.120;5.108;2022-12-07T07:37:07;7.35;;;1.50;;
12591;SDS011;6361;52.120;5.108;2022-12-07T07:39:32;9.88;;;1.73;;
12591;SDS011;6361;52.120;5.108;2022-12-07T07:41:58;11.50;;;1.65;;
12591;SDS011;6361;52.120;5.108;2022-12-07T07:44:23;9.00;;;1.80;;
12591;SDS011;6361;52.120;5.108;2022-12-07T07:46:48;7.97;;;1.67;;
12591;SDS011;6361;52.120;5.108;2022-12-07T07:49:14;10.10;;;1.67;;
12591;SDS011;6361;52.120;5.108;2022-12-07T07:51:39;9.77;;;1.65;;
12591;SDS011;6361;52.120;5.108;2022-12-07T07:54:05;8.55;;;1.80;;
12591;SDS011;6361;52.120;5.108;2022-12-07T07:56:30;8.45;;;1.83;;
12591;SDS011;6361;52.120;5.108;2022-12-07T07:58:55;8.38;;;2.00;;
12591;SDS011;6361;52.120;5.108;2022-12-07T08:01:21;10.40;;;1.90;;
12591;SDS011;6361;52.120;5.108;2022-12-07T08:03:46;9.93;;;1.83;;
12591;SDS011;6361;52.120;5.108;2022-12-07T08:06:12;9.13;;;2.13;;
12591;SDS011;6361;52.120;5.108;2022-12-07T08:08:37;8.38;;;2.28;;
12591;SDS011;6361;52.120;5.108;2022-12-07T08:11:06;18.30;;;2.40;;
12591;SDS011;6361;52.120;5.108;2022-12-07T08:13:33;15.20;;;2.22;;
12591;SDS011;6361;52.120;5.108;2022-12-07T08:15:58;9.35;;;2.00;;
12591;SDS011;6361;52.120;5.108;2022-12-07T08:18:28;9.52;;;2.08;;
12591;SDS011;6361;52.120;5.108;2022-12-07T08:20:58;13.38;;;2.20;;
12591;SDS011;6361;52.120;5.108;2022-12-07T08:23:25;8.27;;;2.55;;
12591;SDS011;6361;52.120;5.108;2022-12-07T08:25:50;10.48;;;1.92;;
12591;SDS011;6361;52.120;5.108;2022-12-07T08:28:16;5.88;;;1.83;;
12591;SDS011;6361;52.120;5.108;2022-12-07T08:30:41;13.63;;;4.03;;
12591;SDS011;6361;52.120;5.108;2022-12-07T08:33:06;11.57;;;2.70;;
12591;SDS011;6361;52.120;5.108;2022-12-07T08:35:32;8.77;;;1.67;;
12591;SDS011;6361;52.120;5.108;2022-12-07T08:37:59;6.32;;;1.55;;
12591;SDS011;6361;52.120;5.108;2022-12-07T08:40:24;6.07;;;1.60;;
12591;SDS011;6361;52.120;5.108;2022-12-07T08:42:49;7.35;;;1.55;;
12591;SDS011;6361;52.120;5.108;2022-12-07T08:45:15;11.80;;;2.20;;
12591;SDS011;6361;52.120;5.108;2022-12-07T08:47:52;10.30;;;1.70;;
12591;SDS011;6361;52.120;5.108;2022-12-07T08:50:21;8.68;;;2.05;;
12591;SDS011;6361;52.120;5.108;2022-12-07T08:52:53;8.40;;;1.90;;
12591;SDS011;6361;52.120;5.108;2022-12-07T08:55:20;8.77;;;2.00;;
12591;SDS011;6361;52.120;5.108;2022-12-07T08:57:46;5.20;;;2.05;;
12591;SDS011;6361;52.120;5.108;2022-12-07T09:00:11;5.20;;;1.65;;
12591;SDS011;6361;52.120;5.108;2022-12-07T09:02:37;7.68;;;2.00;;
12591;SDS011;6361;52.120;5.108;2022-12-07T09:05:03;9.75;;;2.25;;
12591;SDS011;6361;52.120;5.108;2022-12-07T09:07:29;9.77;;;2.03;;
12591;SDS011;6361;52.120;5.108;2022-12-07T09:09:55;8.30;;;1.77;;
12591;SDS011;6361;52.120;5.108;2022-12-07T09:12:21;9.13;;;1.67;;
12591;SDS011;6361;52.120;5.108;2022-12-07T09:14:46;7.82;;;1.50;;
12591;SDS011;6361;52.120;5.108;2022-12-07T09:17:12;9.00;;;1.70;;
12591;SDS011;6361;52.120;5.108;2022-12-07T09:19:38;8.23;;;1.60;;
12591;SDS011;6361;52.120;5.108;2022-12-07T09:22:03;7.70;;;1.75;;
12591;SDS011;6361;52.120;5.108;2022-12-07T09:24:32;7.60;;;1.77;;
12591;SDS011;6361;52.120;5.108;2022-12-07T09:26:58;4.10;;;1.52;;
12591;SDS011;6361;52.120;5.108;2022-12-07T09:29:23;11.05;;;1.95;;
12591;SDS011;6361;52.120;5.108;2022-12-07T09:31:49;5.95;;;1.42;;
12591;SDS011;6361;52.120;5.108;2022-12-07T09:34:14;5.22;;;1.48;;
12591;SDS011;6361;52.120;5.108;2022-12-07T09:36:39;9.30;;;1.85;;
12591;SDS011;6361;52.120;5.108;2022-12-07T09:39:05;8.27;;;1.80;;
12591;SDS011;6361;52.120;5.108;2022-12-07T09:41:31;7.40;;;1.85;;
12591;SDS011;6361;52.120;5.108;2022-12-07T09:44:07;7.88;;;1.83;;
12591;SDS011;6361;52.120;5.108;2022-12-07T09:46:36;7.88;;;1.80;;
12591;SDS011;6361;52.120;5.108;2022-12-07T09:49:02;8.90;;;1.65;;
12591;SDS011;6361;52.120;5.108;2022-12-07T09:51:28;6.05;;;2.08;;
12591;SDS011;6361;52.120;5.108;2022-12-07T09:53:54;8.02;;;1.90;;
12591;SDS011;6361;52.120;5.108;2022-12-07T09:56:20;10.43;;;2.10;;
12591;SDS011;6361;52.120;5.108;2022-12-07T09:58:47;10.27;;;1.60;;
12591;SDS011;6361;52.120;5.108;2022-12-07T10:03:38;5.07;;;1.60;;
12591;SDS011;6361;52.120;5.108;2022-12-07T10:06:09;7.38;;;1.88;;
12591;SDS011;6361;52.120;5.108;2022-12-07T10:08:36;10.68;;;2.03;;
12591;SDS011;6361;52.120;5.108;2022-12-07T10:11:01;8.38;;;1.70;;
12591;SDS011;6361;52.120;5.108;2022-12-07T10:16:41;7.18;;;1.67;;
12591;SDS011;6361;52.120;5.108;2022-12-07T10:19:17;8.95;;;2.08;;
12591;SDS011;6361;52.120;5.108;2022-12-07T10:24:37;3.80;;;1.40;;
12591;SDS011;6361;52.120;5.108;2022-12-07T10:27:10;8.63;;;1.83;;
12591;SDS011;6361;52.120;5.108;2022-12-07T10:29:47;5.18;;;1.67;;
12591;SDS011;6361;52.120;5.108;2022-12-07T10:34:39;4.43;;;1.50;;
12591;SDS011;6361;52.120;5.108;2022-12-07T10:39:52;6.03;;;1.20;;
12591;SDS011;6361;52.120;5.108;2022-12-07T10:44:46;7.07;;;1.35;;
12591;SDS011;6361;52.120;5.108;2022-12-07T10:52:45;5.65;;;1.13;;
12591;SDS011;6361;52.120;5.108;2022-12-07T10:55:20;5.15;;;1.33;;
12591;SDS011;6361;52.120;5.108;2022-12-07T11:07:08;5.60;;;1.13;;
12591;SDS011;6361;52.120;5.108;2022-12-07T11:15:26;4.47;;;1.13;;
12591;SDS011;6361;52.120;5.108;2022-12-07T11:23:45;6.55;;;1.40;;
12591;SDS011;6361;52.120;5.108;2022-12-07T11:34:36;6.90;;;1.40;;
12591;SDS011;6361;52.120;5.108;2022-12-07T11:37:13;11.25;;;1.88;;
12591;SDS011;6361;52.120;5.108;2022-12-07T11:39:53;4.22;;;1.13;;
12591;SDS011;6361;52.120;5.108;2022-12-07T11:42:27;6.15;;;1.50;;
12591;SDS011;6361;52.120;5.108;2022-12-07T11:45:03;11.20;;;1.70;;
12591;SDS011;6361;52.120;5.108;2022-12-07T11:47:36;10.07;;;1.50;;
12591;SDS011;6361;52.120;5.108;2022-12-07T11:52:54;8.18;;;1.42;;
12591;SDS011;6361;52.120;5.108;2022-12-07T11:55:24;8.35;;;1.27;;
12591;SDS011;6361;52.120;5.108;2022-12-07T11:57:54;9.90;;;1.90;;
12591;SDS011;6361;52.120;5.108;2022-12-07T12:00:25;6.95;;;1.92;;
12591;SDS011;6361;52.120;5.108;2022-12-07T12:02:53;14.30;;;2.22;;
12591;SDS011;6361;52.120;5.108;2022-12-07T12:05:24;7.70;;;1.77;;
12591;SDS011;6361;52.120;5.108;2022-12-07T12:21:29;6.20;;;1.30;;
12591;SDS011;6361;52.120;5.108;2022-12-07T12:26:29;5.82;;;1.38;;
12591;SDS011;6361;52.120;5.108;2022-12-07T12:38:21;8.63;;;1.33;;
12591;SDS011;6361;52.120;5.108;2022-12-07T12:40:52;7.93;;;1.40;;
12591;SDS011;6361;52.120;5.108;2022-12-07T12:54:18;5.53;;;1.27;;
12591;SDS011;6361;52.120;5.108;2022-12-07T12:59:28;8.35;;;1.48;;
12591;SDS011;6361;52.120;5.108;2022-12-07T13:02:14;6.57;;;2.00;;
12591;SDS011;6361;52.120;5.108;2022-12-07T13:05:03;9.10;;;1.50;;
12591;SDS011;6361;52.120;5.108;2022-12-07T13:10:21;6.47;;;1.90;;
12591;SDS011;6361;52.120;5.108;2022-12-07T13:12:55;6.60;;;1.10;;
12591;SDS011;6361;52.120;5.108;2022-12-07T13:28:42;8.68;;;1.63;;
12591;SDS011;6361;52.120;5.108;2022-12-07T13:33:59;8.05;;;1.45;;
12591;SDS011;6361;52.120;5.108;2022-12-07T13:36:27;5.45;;;1.08;;
12591;SDS011;6361;52.120;5.108;2022-12-07T13:39:01;6.38;;;1.40;;
12591;SDS011;6361;52.120;5.108;2022-12-07T13:41:36;5.90;;;0.90;;
12591;SDS011;6361;52.120;5.108;2022-12-07T13:44:08;5.28;;;1.20;;
12591;SDS011;6361;52.120;5.108;2022-12-07T13:49:24;6.13;;;0.77;;
12591;SDS011;6361;52.120;5.108;2022-12-07T13:51:50;5.35;;;1.00;;
12591;SDS011;6361;52.120;5.108;2022-12-07T13:54:16;5.18;;;1.00;;
12591;SDS011;6361;52.120;5.108;2022-12-07T13:56:42;6.05;;;0.98;;
12591;SDS011;6361;52.120;5.108;2022-12-07T13:59:16;3.15;;;1.00;;
12591;SDS011;6361;52.120;5.108;2022-12-07T14:01:45;4.65;;;0.93;;
12591;SDS011;6361;52.120;5.108;2022-12-07T14:04:33;3.47;;;1.10;;
12591;SDS011;6361;52.120;5.108;2022-12-07T14:07:00;4.57;;;0.95;;
12591;SDS011;6361;52.120;5.108;2022-12-07T14:09:27;5.72;;;0.82;;
12591;SDS011;6361;52.120;5.108;2022-12-07T14:11:54;5.72;;;0.90;;
12591;SDS011;6361;52.120;5.108;2022-12-07T14:14:25;7.32;;;1.00;;
12591;SDS011;6361;52.120;5.108;2022-12-07T14:25:02;5.22;;;1.30;;
12591;SDS011;6361;52.120;5.108;2022-12-07T14:27:46;4.95;;;0.98;;
12591;SDS011;6361;52.120;5.108;2022-12-07T14:30:18;2.58;;;0.90;;
12591;SDS011;6361;52.120;5.108;2022-12-07T14:32:44;4.60;;;1.00;;
12591;SDS011;6361;52.120;5.108;2022-12-07T14:35:14;4.20;;;1.20;;
12591;SDS011;6361;52.120;5.108;2022-12-07T14:37:41;2.92;;;0.90;;
12591;SDS011;6361;52.120;5.108;2022-12-07T14:40:12;7.10;;;1.58;;
12591;SDS011;6361;52.120;5.108;2022-12-07T14:42:49;6.95;;;1.55;;
12591;SDS011;6361;52.120;5.108;2022-12-07T14:45:17;4.85;;;1.38;;
12591;SDS011;6361;52.120;5.108;2022-12-07T14:47:45;10.27;;;1.50;;
12591;SDS011;6361;52.120;5.108;2022-12-07T14:50:14;11.10;;;1.98;;
12591;SDS011;6361;52.120;5.108;2022-12-07T14:52:43;5.55;;;1.40;;
12591;SDS011;6361;52.120;5.108;2022-12-07T14:55:30;5.75;;;1.30;;
12591;SDS011;6361;52.120;5.108;2022-12-07T14:57:56;6.35;;;1.10;;
12591;SDS011;6361;52.120;5.108;2022-12-07T15:00:23;10.85;;;1.30;;
12591;SDS011;6361;52.120;5.108;2022-12-07T15:02:50;6.43;;;1.40;;
12591;SDS011;6361;52.120;5.108;2022-12-07T15:05:16;6.78;;;2.38;;
12591;SDS011;6361;52.120;5.108;2022-12-07T15:07:42;6.22;;;1.05;;
12591;SDS011;6361;52.120;5.108;2022-12-07T15:10:27;6.05;;;1.50;;
12591;SDS011;6361;52.120;5.108;2022-12-07T15:12:55;3.30;;;1.38;;
12591;SDS011;6361;52.120;5.108;2022-12-07T15:15:41;4.95;;;1.30;;
12591;SDS011;6361;52.120;5.108;2022-12-07T15:18:07;6.45;;;1.40;;
12591;SDS011;6361;52.120;5.108;2022-12-07T15:20:32;7.80;;;1.60;;
12591;SDS011;6361;52.120;5.108;2022-12-07T15:22:58;6.57;;;1.70;;
12591;SDS011;6361;52.120;5.108;2022-12-07T15:25:23;4.75;;;1.45;;
12591;SDS011;6361;52.120;5.108;2022-12-07T15:27:49;8.80;;;1.60;;
12591;SDS011;6361;52.120;5.108;2022-12-07T15:30:14;5.50;;;2.00;;
12591;SDS011;6361;52.120;5.108;2022-12-07T15:32:40;5.97;;;1.70;;
12591;SDS011;6361;52.120;5.108;2022-12-07T15:35:05;14.50;;;2.47;;
12591;SDS011;6361;52.120;5.108;2022-12-07T15:37:31;7.60;;;2.13;;
12591;SDS011;6361;52.120;5.108;2022-12-07T15:39:56;8.45;;;2.35;;
12591;SDS011;6361;52.120;5.108;2022-12-07T15:42:22;9.95;;;1.77;;
12591;SDS011;6361;52.120;5.108;2022-12-07T15:44:47;3.28;;;1.30;;
12591;SDS011;6361;52.120;5.108;2022-12-07T15:47:31;5.18;;;1.67;;
12591;SDS011;6361;52.120;5.108;2022-12-07T15:49:58;6.90;;;1.67;;
12591;SDS011;6361;52.120;5.108;2022-12-07T15:52:24;6.15;;;1.80;;
12591;SDS011;6361;52.120;5.108;2022-12-07T15:54:49;4.93;;;1.75;;
12591;SDS011;6361;52.120;5.108;2022-12-07T15:57:15;9.80;;;1.50;;
12591;SDS011;6361;52.120;5.108;2022-12-07T15:59:40;7.22;;;1.60;;
12591;SDS011;6361;52.120;5.108;2022-12-07T16:02:05;7.53;;;2.75;;
12591;SDS011;6361;52.120;5.108;2022-12-07T16:04:31;13.23;;;6.18;;
12591;SDS011;6361;52.120;5.108;2022-12-07T16:06:56;11.70;;;4.97;;
12591;SDS011;6361;52.120;5.108;2022-12-07T16:09:22;8.98;;;3.78;;
12591;SDS011;6361;52.120;5.108;2022-12-07T16:11:47;6.53;;;2.92;;
12591;SDS011;6361;52.120;5.108;2022-12-07T16:14:15;6.22;;;1.77;;
12591;SDS011;6361;52.120;5.108;2022-12-07T16:16:40;7.38;;;2.10;;
12591;SDS011;6361;52.120;5.108;2022-12-07T16:19:06;6.03;;;1.60;;
12591;SDS011;6361;52.120;5.108;2022-12-07T16:21:33;9.43;;;2.28;;
12591;SDS011;6361;52.120;5.108;2022-12-07T16:23:59;6.03;;;1.90;;
12591;SDS011;6361;52.120;5.108;2022-12-07T16:26:25;7.97;;;2.33;;
12591;SDS011;6361;52.120;5.108;2022-12-07T16:28:51;6.70;;;2.10;;
12591;SDS011;6361;52.120;5.108;2022-12-07T16:31:18;7.32;;;2.10;;
12591;SDS011;6361;52.120;5.108;2022-12-07T16:33:45;5.65;;;2.50;;
12591;SDS011;6361;52.120;5.108;2022-12-07T16:36:14;8.05;;;2.67;;
12591;SDS011;6361;52.120;5.108;2022-12-07T16:38:41;6.47;;;2.10;;
12591;SDS011;6361;52.120;5.108;2022-12-07T16:41:08;7.10;;;2.58;;
12591;SDS011;6361;52.120;5.108;2022-12-07T16:43:34;8.80;;;4.85;;
12591;SDS011;6361;52.120;5.108;2022-12-07T16:46:00;10.32;;;4.32;;
12591;SDS011;6361;52.120;5.108;2022-12-07T16:48:26;9.38;;;3.03;;
12591;SDS011;6361;52.120;5.108;2022-12-07T16:50:53;7.70;;;2.40;;
12591;SDS011;6361;52.120;5.108;2022-12-07T16:53:19;10.57;;;2.25;;
12591;SDS011;6361;52.120;5.108;2022-12-07T16:55:45;5.30;;;2.03;;
12591;SDS011;6361;52.120;5.108;2022-12-07T16:58:11;6.72;;;2.15;;
12591;SDS011;6361;52.120;5.108;2022-12-07T17:00:37;7.15;;;2.22;;
12591;SDS011;6361;52.120;5.108;2022-12-07T17:03:03;5.72;;;2.30;;
12591;SDS011;6361;52.120;5.108;2022-12-07T17:05:29;6.00;;;2.10;;
12591;SDS011;6361;52.120;5.108;2022-12-07T17:07:55;7.57;;;2.47;;
12591;SDS011;6361;52.120;5.108;2022-12-07T17:10:21;6.70;;;2.47;;
12591;SDS011;6361;52.120;5.108;2022-12-07T17:12:47;6.40;;;2.47;;
12591;SDS011;6361;52.120;5.108;2022-12-07T17:15:12;6.25;;;2.10;;
12591;SDS011;6361;52.120;5.108;2022-12-07T17:17:46;8.35;;;2.28;;
12591;SDS011;6361;52.120;5.108;2022-12-07T17:20:16;5.82;;;2.40;;
12591;SDS011;6361;52.120;5.108;2022-12-07T17:22:42;4.57;;;2.00;;
12591;SDS011;6361;52.120;5.108;2022-12-07T17:25:08;5.20;;;2.47;;
12591;SDS011;6361;52.120;5.108;2022-12-07T17:27:34;6.15;;;2.50;;
12591;SDS011;6361;52.120;5.108;2022-12-07T17:30:00;8.20;;;2.55;;
12591;SDS011;6361;52.120;5.108;2022-12-07T17:32:26;7.25;;;2.60;;
12591;SDS011;6361;52.120;5.108;2022-12-07T17:34:51;6.53;;;2.90;;
12591;SDS011;6361;52.120;5.108;2022-12-07T17:37:17;6.32;;;2.63;;